ETNL

Rostock-Laage Airport

Rostock, Germany
METAR ETNL 170220Z 00000KT 0700 R27/0600D FG 09/09 Q1018 RED
Observed Flight Rules
Oct-17 @ 02:20 UTC (49 minutes ago)
Visibility Conditions
692 meters
  • Fog
Temperatures Readings
Current 9°C / 48°F
Dewpoint 9°C / 48°F
Humidity 100%
Altimeter 30.06" Hg
Pressure 1018 hPa
Elevation 40
METAR ETNL 170220Z 00000KT 0700 R27/0600D FG 09/09 Q1018 RED
Observed Flight Rules
Oct-17 @ 02:20 UTC
(49 minutes ago)
Conditions
  • Fog
Temperature Dewpoint
9°C / 48°F 9°C / 48°F
Humidity Altimeter Pressure
100% 30.06" Hg 1018 hPa